createdAt,value
2018-10-03T03:26:24.053Z,2.23
2018-10-03T03:30:27.944Z,2.43
2018-10-03T03:34:32.779Z,2.40
2018-10-03T03:38:36.617Z,2.10
2018-10-03T03:42:40.300Z,2.70
2018-10-03T03:46:43.889Z,2.13
2018-10-03T03:50:47.517Z,2.30
2018-10-03T03:54:51.530Z,2.30
2018-10-03T03:58:55.389Z,2.40
2018-10-03T04:02:59.041Z,2.50
2018-10-03T04:07:02.588Z,2.20
2018-10-03T04:11:06.208Z,2.33
2018-10-03T04:15:10.408Z,2.30
2018-10-03T04:19:14.039Z,2.93
2018-10-03T04:23:17.652Z,2.87
2018-10-03T04:41:13.388Z,3.20
2018-10-03T04:45:16.962Z,2.90
2018-10-03T04:49:20.534Z,3.13
2018-10-03T04:53:24.225Z,2.37
2018-10-03T04:57:27.709Z,2.80
2018-10-03T05:01:31.313Z,2.90
2018-10-03T05:05:34.878Z,2.80
2018-10-03T05:09:38.428Z,2.70
2018-10-03T05:13:42.032Z,2.70
2018-10-03T05:17:45.538Z,3.20
2018-10-03T05:21:49.121Z,2.60
2018-10-03T05:25:52.668Z,2.77
2018-10-03T05:29:56.206Z,2.60
2018-10-03T05:33:59.745Z,3.10
2018-10-03T05:38:03.249Z,2.70
2018-10-03T05:42:06.872Z,2.57
2018-10-03T05:46:10.365Z,2.37
2018-10-03T05:50:13.930Z,2.60
2018-10-03T05:54:17.421Z,2.57
2018-10-03T05:58:21.195Z,2.50
2018-10-03T06:02:25.345Z,2.87
2018-10-03T06:06:30.224Z,3.03
2018-10-03T06:10:35.732Z,2.97
2018-10-03T06:14:40.002Z,3.10
2018-10-03T06:18:44.004Z,3.13
2018-10-03T06:22:47.829Z,3.83
2018-10-03T06:26:51.636Z,3.27
2018-10-03T06:30:55.296Z,3.57
2018-10-03T06:34:58.857Z,3.13
2018-10-03T06:39:02.524Z,2.93
2018-10-03T06:43:06.073Z,2.57
2018-10-03T06:47:10.404Z,2.90
2018-10-03T06:51:13.962Z,3.13
2018-10-03T06:55:17.590Z,2.73
2018-10-03T06:59:21.215Z,2.70
2018-10-03T07:03:25.038Z,2.47
2018-10-03T07:07:28.678Z,2.43
2018-10-03T07:11:32.359Z,2.43
2018-10-03T07:15:36.012Z,2.50
2018-10-03T07:19:39.654Z,2.20
2018-10-03T07:23:43.406Z,2.23
2018-10-03T07:27:46.936Z,2.50
2018-10-03T07:31:50.713Z,2.33
2018-10-03T07:35:55.588Z,2.00
2018-10-03T07:39:59.368Z,2.20
2018-10-03T07:44:03.184Z,2.10
2018-10-03T07:48:06.971Z,2.10
2018-10-03T07:52:10.661Z,2.00
2018-10-03T07:56:15.405Z,2.00
2018-10-03T08:00:25.861Z,1.90
2018-10-03T08:04:30.327Z,2.30
2018-10-03T08:08:35.031Z,2.50
2018-10-03T08:12:39.185Z,2.20
2018-10-03T08:16:42.891Z,2.60
2018-10-03T08:20:46.549Z,2.97
2018-10-03T08:24:50.296Z,2.20
2018-10-03T08:28:55.836Z,2.60
2018-10-03T08:32:59.621Z,2.27
2018-10-03T08:37:03.105Z,2.20
2018-10-03T08:41:07.236Z,1.97
2018-10-03T08:45:11.638Z,2.00
2018-10-03T08:49:15.193Z,2.23
2018-10-03T08:53:18.932Z,1.93
2018-10-03T08:57:26.156Z,1.50
2018-10-03T09:01:42.835Z,1.60
2018-10-03T09:06:05.605Z,1.73
2018-10-03T09:10:30.846Z,1.80
2018-10-03T09:14:49.132Z,1.80
2018-10-03T09:19:00.713Z,2.00
2018-10-03T09:23:09.919Z,1.83
2018-10-03T09:36:08.605Z,1.97
2018-10-03T09:40:12.451Z,1.93
2018-10-03T09:44:16.886Z,2.10
2018-10-03T09:48:22.325Z,2.30
2018-10-03T09:52:26.650Z,2.83
2018-10-03T09:56:32.652Z,2.20
2018-10-03T10:14:41.148Z,1.77
2018-10-03T11:04:53.355Z,1.60
2018-10-03T11:18:14.488Z,1.60
2018-10-03T11:22:39.708Z,2.07
2018-10-03T11:35:58.968Z,1.80
2018-10-03T17:41:12.230Z,1.70
2018-10-03T17:54:32.261Z,1.77
2018-10-03T17:58:38.208Z,1.90
2018-10-03T18:07:20.364Z,1.67
2018-10-03T18:16:01.655Z,1.60
2018-10-03T18:20:05.930Z,2.13
2018-10-03T18:28:47.116Z,2.13
2018-10-03T18:32:51.104Z,2.30
2018-10-03T18:36:56.882Z,2.50
2018-10-03T18:45:40.056Z,1.97
2018-10-03T18:49:46.563Z,1.83
2018-10-03T18:53:50.300Z,2.00
2018-10-03T18:57:53.908Z,1.77
2018-10-03T19:01:58.381Z,1.90
2018-10-03T19:10:41.388Z,1.90
2018-10-03T19:23:57.867Z,2.07
2018-10-03T19:41:54.921Z,2.30
2018-10-03T19:45:59.080Z,2.40
2018-10-03T19:50:02.721Z,2.13
2018-10-03T20:02:59.172Z,2.00
2018-10-03T20:30:15.773Z,2.50
2018-10-03T20:34:24.487Z,2.50
2018-10-03T20:38:29.911Z,2.40
2018-10-03T20:47:13.656Z,2.70
2018-10-03T20:51:18.786Z,2.40
2018-10-03T20:55:22.620Z,2.13
2018-10-03T20:59:29.192Z,2.20
2018-10-03T21:03:32.879Z,2.43
2018-10-03T21:07:40.468Z,2.47
2018-10-03T21:11:54.375Z,2.43
2018-10-03T21:16:02.225Z,2.33
2018-10-03T21:20:11.781Z,2.70
2018-10-03T21:24:21.908Z,2.53
2018-10-03T21:28:28.701Z,2.37
2018-10-03T21:32:41.665Z,2.23
2018-10-03T21:36:48.879Z,2.40
2018-10-03T21:40:58.718Z,2.40
2018-10-03T21:45:12.475Z,1.83
2018-10-03T21:49:25.449Z,2.50
2018-10-03T21:53:38.537Z,2.23
2018-10-03T22:02:06.159Z,2.17
2018-10-03T22:06:15.790Z,2.30
2018-10-03T22:15:14.773Z,2.00
2018-10-03T22:19:18.510Z,2.43
2018-10-03T22:23:22.158Z,2.27
2018-10-03T22:27:25.948Z,2.23
2018-10-03T22:40:47.504Z,2.20
2018-10-03T22:44:51.322Z,1.97
2018-10-03T22:48:56.552Z,2.20
2018-10-03T22:53:02.058Z,2.03
2018-10-03T22:57:06.317Z,1.90
2018-10-03T23:01:10.148Z,2.40
2018-10-03T23:05:14.781Z,2.10
2018-10-03T23:09:19.318Z,2.10
2018-10-03T23:13:22.980Z,2.10
2018-10-03T23:17:30.188Z,2.50
2018-10-03T23:21:38.007Z,2.10
2018-10-03T23:25:44.452Z,2.30
2018-10-03T23:29:50.237Z,2.20
2018-10-03T23:33:56.017Z,1.90
2018-10-03T23:38:04.306Z,2.13
2018-10-03T23:42:16.042Z,2.20
2018-10-03T23:46:21.694Z,2.00
2018-10-03T23:50:31.123Z,2.20
2018-10-03T23:54:35.987Z,2.20
2018-10-03T23:58:41.910Z,2.53
